sensor_id;sensor_type;location;lat;lon;timestamp;P1;durP1;ratioP1;P2;durP2;ratioP2
1164;SDS011;571;50.930;6.926;2023-06-24T00:36:32;8.37;;;7.30;;
1164;SDS011;571;50.930;6.926;2023-06-24T00:39:36;8.43;;;7.53;;
1164;SDS011;571;50.930;6.926;2023-06-24T00:45:51;8.57;;;7.73;;
1164;SDS011;571;50.930;6.926;2023-06-24T01:27:01;10.13;;;9.03;;
1164;SDS011;571;50.930;6.926;2023-06-24T02:08:28;10.33;;;9.33;;
1164;SDS011;571;50.930;6.926;2023-06-24T02:12:44;9.07;;;8.30;;
1164;SDS011;571;50.930;6.926;2023-06-24T02:31:32;10.70;;;9.60;;
1164;SDS011;571;50.930;6.926;2023-06-24T02:47:31;9.37;;;8.47;;
1164;SDS011;571;50.930;6.926;2023-06-24T02:53:21;11.00;;;9.90;;
1164;SDS011;571;50.930;6.926;2023-06-24T03:10:39;9.80;;;8.80;;
1164;SDS011;571;50.930;6.926;2023-06-24T03:17:07;10.20;;;8.90;;
1164;SDS011;571;50.930;6.926;2023-06-24T03:19:46;10.37;;;9.47;;
1164;SDS011;571;50.930;6.926;2023-06-24T03:33:45;8.90;;;8.00;;
1164;SDS011;571;50.930;6.926;2023-06-24T04:14:19;9.60;;;8.70;;
1164;SDS011;571;50.930;6.926;2023-06-24T04:17:14;10.47;;;9.43;;
1164;SDS011;571;50.930;6.926;2023-06-24T04:20:07;10.97;;;9.80;;
1164;SDS011;571;50.930;6.926;2023-06-24T04:23:22;11.97;;;9.80;;
1164;SDS011;571;50.930;6.926;2023-06-24T04:29:18;12.83;;;10.60;;
1164;SDS011;571;50.930;6.926;2023-06-24T04:32:24;11.23;;;10.07;;
1164;SDS011;571;50.930;6.926;2023-06-24T04:38:21;10.60;;;9.70;;
1164;SDS011;571;50.930;6.926;2023-06-24T04:41:11;10.33;;;9.40;;
1164;SDS011;571;50.930;6.926;2023-06-24T04:44:13;11.70;;;10.50;;
1164;SDS011;571;50.930;6.926;2023-06-24T04:46:51;12.10;;;10.20;;
1164;SDS011;571;50.930;6.926;2023-06-24T04:53:04;10.67;;;9.67;;
1164;SDS011;571;50.930;6.926;2023-06-24T04:55:34;11.63;;;10.50;;
1164;SDS011;571;50.930;6.926;2023-06-24T04:58:04;11.13;;;9.70;;
1164;SDS011;571;50.930;6.926;2023-06-24T05:00:41;11.23;;;9.87;;
1164;SDS011;571;50.930;6.926;2023-06-24T05:03:13;11.60;;;9.33;;
1164;SDS011;571;50.930;6.926;2023-06-24T05:05:45;10.30;;;9.30;;
1164;SDS011;571;50.930;6.926;2023-06-24T05:08:16;11.43;;;10.27;;
1164;SDS011;571;50.930;6.926;2023-06-24T05:10:43;13.27;;;10.53;;
1164;SDS011;571;50.930;6.926;2023-06-24T05:13:28;11.33;;;10.27;;
1164;SDS011;571;50.930;6.926;2023-06-24T05:16:00;10.40;;;9.40;;
1164;SDS011;571;50.930;6.926;2023-06-24T05:18:43;9.63;;;8.67;;
1164;SDS011;571;50.930;6.926;2023-06-24T05:21:24;10.57;;;9.37;;
1164;SDS011;571;50.930;6.926;2023-06-24T05:23:54;10.80;;;9.80;;
1164;SDS011;571;50.930;6.926;2023-06-24T05:26:25;9.00;;;8.20;;
1164;SDS011;571;50.930;6.926;2023-06-24T05:29:09;11.07;;;9.57;;
1164;SDS011;571;50.930;6.926;2023-06-24T05:34:37;9.80;;;8.90;;
1164;SDS011;571;50.930;6.926;2023-06-24T05:37:18;11.30;;;8.83;;
1164;SDS011;571;50.930;6.926;2023-06-24T05:39:51;13.97;;;8.93;;
1164;SDS011;571;50.930;6.926;2023-06-24T05:42:22;14.27;;;9.93;;
1164;SDS011;571;50.930;6.926;2023-06-24T05:44:54;11.10;;;9.40;;
1164;SDS011;571;50.930;6.926;2023-06-24T05:47:36;11.93;;;9.03;;
1164;SDS011;571;50.930;6.926;2023-06-24T05:50:03;9.73;;;8.83;;
1164;SDS011;571;50.930;6.926;2023-06-24T05:52:30;12.73;;;9.57;;
1164;SDS011;571;50.930;6.926;2023-06-24T05:55:01;11.27;;;8.87;;
1164;SDS011;571;50.930;6.926;2023-06-24T05:57:29;11.27;;;8.77;;
1164;SDS011;571;50.930;6.926;2023-06-24T05:59:58;13.50;;;10.40;;
1164;SDS011;571;50.930;6.926;2023-06-24T06:02:28;11.50;;;8.50;;
1164;SDS011;571;50.930;6.926;2023-06-24T06:04:56;9.30;;;8.50;;
1164;SDS011;571;50.930;6.926;2023-06-24T06:07:23;17.03;;;9.60;;
1164;SDS011;571;50.930;6.926;2023-06-24T06:09:52;11.57;;;9.60;;
1164;SDS011;571;50.930;6.926;2023-06-24T06:12:19;12.23;;;9.30;;
1164;SDS011;571;50.930;6.926;2023-06-24T06:14:50;10.07;;;9.07;;
1164;SDS011;571;50.930;6.926;2023-06-24T06:17:45;11.40;;;10.30;;
1164;SDS011;571;50.930;6.926;2023-06-24T06:20:31;10.63;;;9.63;;
1164;SDS011;571;50.930;6.926;2023-06-24T06:23:12;10.30;;;9.37;;
1164;SDS011;571;50.930;6.926;2023-06-24T06:26:28;14.47;;;9.90;;
1164;SDS011;571;50.930;6.926;2023-06-24T06:29:30;11.27;;;9.20;;
1164;SDS011;571;50.930;6.926;2023-06-24T06:53:33;10.03;;;8.70;;
1164;SDS011;571;50.930;6.926;2023-06-24T06:55:49;9.20;;;7.57;;
1164;SDS011;571;50.930;6.926;2023-06-24T06:58:53;10.53;;;7.80;;
1164;SDS011;571;50.930;6.926;2023-06-24T07:38:20;7.73;;;6.40;;
1164;SDS011;571;50.930;6.926;2023-06-24T07:48:08;7.80;;;7.10;;
1164;SDS011;571;50.930;6.926;2023-06-24T07:51:02;9.87;;;5.77;;
1164;SDS011;571;50.930;6.926;2023-06-24T07:53:51;7.43;;;6.13;;
1164;SDS011;571;50.930;6.926;2023-06-24T07:56:49;8.20;;;6.43;;
1164;SDS011;571;50.930;6.926;2023-06-24T07:59:30;7.30;;;6.60;;
1164;SDS011;571;50.930;6.926;2023-06-24T08:02:02;6.27;;;5.30;;
1164;SDS011;571;50.930;6.926;2023-06-24T08:04:53;14.03;;;6.53;;
1164;SDS011;571;50.930;6.926;2023-06-24T08:07:26;8.20;;;6.93;;
1164;SDS011;571;50.930;6.926;2023-06-24T08:09:57;9.00;;;7.10;;
1164;SDS011;571;50.930;6.926;2023-06-24T08:12:32;7.87;;;6.90;;
1164;SDS011;571;50.930;6.926;2023-06-24T08:15:19;7.10;;;6.17;;
1164;SDS011;571;50.930;6.926;2023-06-24T08:18:12;7.70;;;6.90;;
1164;SDS011;571;50.930;6.926;2023-06-24T08:21:50;8.23;;;5.20;;
1164;SDS011;571;50.930;6.926;2023-06-24T08:27:30;14.97;;;7.27;;
1164;SDS011;571;50.930;6.926;2023-06-24T08:30:47;7.80;;;5.63;;
1164;SDS011;571;50.930;6.926;2023-06-24T08:33:25;7.60;;;5.87;;
1164;SDS011;571;50.930;6.926;2023-06-24T08:35:58;8.00;;;7.20;;
1164;SDS011;571;50.930;6.926;2023-06-24T08:38:54;7.27;;;5.60;;
1164;SDS011;571;50.930;6.926;2023-06-24T08:41:42;7.90;;;5.90;;
1164;SDS011;571;50.930;6.926;2023-06-24T08:44:31;11.83;;;8.00;;
1164;SDS011;571;50.930;6.926;2023-06-24T08:47:09;7.63;;;6.83;;
1164;SDS011;571;50.930;6.926;2023-06-24T08:49:52;11.10;;;6.27;;
1164;SDS011;571;50.930;6.926;2023-06-24T08:52:35;8.40;;;6.40;;
1164;SDS011;571;50.930;6.926;2023-06-24T08:59:17;7.97;;;6.87;;
1164;SDS011;571;50.930;6.926;2023-06-24T09:08:41;8.53;;;6.23;;
1164;SDS011;571;50.930;6.926;2023-06-24T09:22:02;7.83;;;5.70;;
1164;SDS011;571;50.930;6.926;2023-06-24T09:42:30;8.10;;;6.47;;
1164;SDS011;571;50.930;6.926;2023-06-24T09:45:06;6.77;;;5.70;;
1164;SDS011;571;50.930;6.926;2023-06-24T09:47:50;7.80;;;5.40;;
1164;SDS011;571;50.930;6.926;2023-06-24T09:50:25;6.93;;;6.23;;
1164;SDS011;571;50.930;6.926;2023-06-24T09:53:03;6.70;;;5.03;;
1164;SDS011;571;50.930;6.926;2023-06-24T09:58:53;6.23;;;5.63;;
1164;SDS011;571;50.930;6.926;2023-06-24T10:01:40;5.57;;;5.03;;
1164;SDS011;571;50.930;6.926;2023-06-24T10:04:27;6.70;;;4.87;;
1164;SDS011;571;50.930;6.926;2023-06-24T10:06:59;4.80;;;3.60;;
1164;SDS011;571;50.930;6.926;2023-06-24T10:09:52;5.30;;;4.80;;
1164;SDS011;571;50.930;6.926;2023-06-24T10:12:43;5.20;;;4.70;;
1164;SDS011;571;50.930;6.926;2023-06-24T10:15:18;14.60;;;5.00;;
1164;SDS011;571;50.930;6.926;2023-06-24T10:18:00;9.13;;;5.27;;
1164;SDS011;571;50.930;6.926;2023-06-24T10:20:32;9.07;;;5.40;;
1164;SDS011;571;50.930;6.926;2023-06-24T10:23:14;5.63;;;4.80;;
1164;SDS011;571;50.930;6.926;2023-06-24T10:29:35;5.53;;;5.03;;
1164;SDS011;571;50.930;6.926;2023-06-24T10:32:25;6.23;;;5.43;;
1164;SDS011;571;50.930;6.926;2023-06-24T10:35:24;4.33;;;3.73;;
1164;SDS011;571;50.930;6.926;2023-06-24T10:37:55;5.93;;;4.73;;
1164;SDS011;571;50.930;6.926;2023-06-24T10:43:26;5.13;;;4.27;;
1164;SDS011;571;50.930;6.926;2023-06-24T10:46:00;4.87;;;4.47;;
1164;SDS011;571;50.930;6.926;2023-06-24T10:48:50;4.93;;;4.47;;
1164;SDS011;571;50.930;6.926;2023-06-24T10:51:29;6.10;;;4.20;;
1164;SDS011;571;50.930;6.926;2023-06-24T10:53:58;5.37;;;4.07;;
1164;SDS011;571;50.930;6.926;2023-06-24T10:56:29;4.10;;;3.70;;
1164;SDS011;571;50.930;6.926;2023-06-24T10:59:01;4.53;;;4.20;;
1164;SDS011;571;50.930;6.926;2023-06-24T11:01:37;4.90;;;4.40;;
1164;SDS011;571;50.930;6.926;2023-06-24T11:08:23;5.73;;;4.47;;
1164;SDS011;571;50.930;6.926;2023-06-24T11:11:05;4.33;;;3.43;;
1164;SDS011;571;50.930;6.926;2023-06-24T11:20:13;4.13;;;3.77;;
1164;SDS011;571;50.930;6.926;2023-06-24T11:27:45;4.30;;;3.90;;
1164;SDS011;571;50.930;6.926;2023-06-24T11:29:28;6.27;;;4.70;;
1164;SDS011;571;50.930;6.926;2023-06-24T11:57:53;4.17;;;3.77;;
1164;SDS011;571;50.930;6.926;2023-06-24T12:01:10;5.73;;;3.93;;
1164;SDS011;571;50.930;6.926;2023-06-24T12:03:40;8.40;;;4.90;;
1164;SDS011;571;50.930;6.926;2023-06-24T12:06:21;8.50;;;4.57;;
1164;SDS011;571;50.930;6.926;2023-06-24T12:09:40;5.20;;;4.67;;
1164;SDS011;571;50.930;6.926;2023-06-24T12:12:29;4.33;;;3.93;;
1164;SDS011;571;50.930;6.926;2023-06-24T12:22:24;7.63;;;5.30;;
1164;SDS011;571;50.930;6.926;2023-06-24T12:28:34;4.70;;;4.10;;
1164;SDS011;571;50.930;6.926;2023-06-24T12:43:02;5.10;;;4.10;;
1164;SDS011;571;50.930;6.926;2023-06-24T12:49:09;6.60;;;4.30;;
1164;SDS011;571;50.930;6.926;2023-06-24T12:54:55;4.47;;;4.07;;
1164;SDS011;571;50.930;6.926;2023-06-24T14:51:25;41.60;;;5.73;;
1164;SDS011;571;50.930;6.926;2023-06-24T14:54:16;3.67;;;3.37;;
1164;SDS011;571;50.930;6.926;2023-06-24T14:57:14;7.27;;;3.90;;
1164;SDS011;571;50.930;6.926;2023-06-24T14:59:44;3.60;;;3.30;;
1164;SDS011;571;50.930;6.926;2023-06-24T15:02:14;4.10;;;3.70;;
1164;SDS011;571;50.930;6.926;2023-06-24T15:04:45;3.33;;;2.90;;
1164;SDS011;571;50.930;6.926;2023-06-24T15:07:30;4.93;;;3.10;;
1164;SDS011;571;50.930;6.926;2023-06-24T15:10:00;2.83;;;2.60;;
1164;SDS011;571;50.930;6.926;2023-06-24T15:12:34;2.80;;;2.60;;
1164;SDS011;571;50.930;6.926;2023-06-24T15:15:01;3.77;;;2.53;;
1164;SDS011;571;50.930;6.926;2023-06-24T15:17:31;2.83;;;2.27;;
1164;SDS011;571;50.930;6.926;2023-06-24T15:20:08;3.20;;;2.90;;
1164;SDS011;571;50.930;6.926;2023-06-24T15:22:44;3.30;;;3.03;;
1164;SDS011;571;50.930;6.926;2023-06-24T15:25:16;2.97;;;2.77;;
1164;SDS011;571;50.930;6.926;2023-06-24T15:27:56;2.87;;;2.67;;
1164;SDS011;571;50.930;6.926;2023-06-24T15:30:27;3.43;;;3.00;;
1164;SDS011;571;50.930;6.926;2023-06-24T15:32:56;4.60;;;2.87;;
1164;SDS011;571;50.930;6.926;2023-06-24T15:35:28;2.87;;;2.67;;
1164;SDS011;571;50.930;6.926;2023-06-24T15:38:05;2.77;;;2.57;;
1164;SDS011;571;50.930;6.926;2023-06-24T15:40:55;2.70;;;2.50;;
1164;SDS011;571;50.930;6.926;2023-06-24T15:43:33;3.10;;;2.80;;
1164;SDS011;571;50.930;6.926;2023-06-24T15:46:10;3.07;;;2.47;;
1164;SDS011;571;50.930;6.926;2023-06-24T15:48:49;2.90;;;2.60;;
1164;SDS011;571;50.930;6.926;2023-06-24T15:51:23;3.03;;;2.77;;
1164;SDS011;571;50.930;6.926;2023-06-24T15:54:11;3.27;;;2.97;;
1164;SDS011;571;50.930;6.926;2023-06-24T15:56:49;3.07;;;2.60;;
1164;SDS011;571;50.930;6.926;2023-06-24T15:59:33;3.17;;;2.73;;
1164;SDS011;571;50.930;6.926;2023-06-24T16:02:07;2.80;;;2.33;;
1164;SDS011;571;50.930;6.926;2023-06-24T16:04:52;5.37;;;2.70;;
1164;SDS011;571;50.930;6.926;2023-06-24T16:07:34;3.07;;;2.70;;
1164;SDS011;571;50.930;6.926;2023-06-24T16:10:07;3.13;;;2.83;;
1164;SDS011;571;50.930;6.926;2023-06-24T16:12:39;3.13;;;2.70;;
1164;SDS011;571;50.930;6.926;2023-06-24T16:15:18;2.67;;;2.47;;
1164;SDS011;571;50.930;6.926;2023-06-24T16:17:55;3.03;;;2.77;;
1164;SDS011;571;50.930;6.926;2023-06-24T16:20:33;3.50;;;2.93;;
1164;SDS011;571;50.930;6.926;2023-06-24T16:23:29;3.40;;;3.10;;
1164;SDS011;571;50.930;6.926;2023-06-24T16:26:07;3.03;;;2.73;;
1164;SDS011;571;50.930;6.926;2023-06-24T16:28:39;5.23;;;2.60;;
1164;SDS011;571;50.930;6.926;2023-06-24T16:31:22;2.97;;;2.67;;
1164;SDS011;571;50.930;6.926;2023-06-24T16:33:53;3.77;;;2.90;;
1164;SDS011;571;50.930;6.926;2023-06-24T16:36:30;3.00;;;2.70;;
1164;SDS011;571;50.930;6.926;2023-06-24T16:39:06;2.37;;;2.10;;
1164;SDS011;571;50.930;6.926;2023-06-24T16:41:44;3.20;;;2.37;;
1164;SDS011;571;50.930;6.926;2023-06-24T16:44:36;2.77;;;2.50;;
1164;SDS011;571;50.930;6.926;2023-06-24T16:47:04;3.53;;;2.90;;
1164;SDS011;571;50.930;6.926;2023-06-24T16:49:38;3.00;;;2.70;;
1164;SDS011;571;50.930;6.926;2023-06-24T16:52:05;3.53;;;2.80;;
1164;SDS011;571;50.930;6.926;2023-06-24T16:54:43;3.37;;;2.57;;
1164;SDS011;571;50.930;6.926;2023-06-24T16:57:15;3.00;;;2.50;;
1164;SDS011;571;50.930;6.926;2023-06-24T16:59:42;3.13;;;2.43;;
1164;SDS011;571;50.930;6.926;2023-06-24T17:02:13;3.13;;;2.70;;
1164;SDS011;571;50.930;6.926;2023-06-24T17:04:40;3.10;;;2.80;;
1164;SDS011;571;50.930;6.926;2023-06-24T17:07:18;3.77;;;2.40;;
1164;SDS011;571;50.930;6.926;2023-06-24T17:09:45;2.67;;;2.37;;
1164;SDS011;571;50.930;6.926;2023-06-24T17:12:21;2.73;;;2.50;;
1164;SDS011;571;50.930;6.926;2023-06-24T17:14:53;3.17;;;2.30;;
1164;SDS011;571;50.930;6.926;2023-06-24T17:17:25;3.93;;;2.73;;
1164;SDS011;571;50.930;6.926;2023-06-24T17:20:09;4.57;;;2.67;;
1164;SDS011;571;50.930;6.926;2023-06-24T17:22:39;3.77;;;2.70;;
1164;SDS011;571;50.930;6.926;2023-06-24T17:25:06;3.97;;;2.13;;
1164;SDS011;571;50.930;6.926;2023-06-24T17:27:38;3.13;;;2.80;;
1164;SDS011;571;50.930;6.926;2023-06-24T17:30:06;3.80;;;3.40;;
1164;SDS011;571;50.930;6.926;2023-06-24T17:32:39;3.00;;;2.40;;
1164;SDS011;571;50.930;6.926;2023-06-24T17:35:12;3.93;;;2.10;;
1164;SDS011;571;50.930;6.926;2023-06-24T17:37:42;3.30;;;2.17;;
1164;SDS011;571;50.930;6.926;2023-06-24T17:40:09;3.00;;;2.40;;
1164;SDS011;571;50.930;6.926;2023-06-24T17:42:36;4.03;;;3.63;;
1164;SDS011;571;50.930;6.926;2023-06-24T17:45:05;3.80;;;2.23;;
1164;SDS011;571;50.930;6.926;2023-06-24T17:47:35;3.10;;;2.43;;
1164;SDS011;571;50.930;6.926;2023-06-24T18:00:33;3.20;;;2.33;;
1164;SDS011;571;50.930;6.926;2023-06-24T18:03:22;7.33;;;3.17;;
1164;SDS011;571;50.930;6.926;2023-06-24T18:06:30;3.00;;;2.20;;
1164;SDS011;571;50.930;6.926;2023-06-24T18:09:09;2.43;;;2.23;;
1164;SDS011;571;50.930;6.926;2023-06-24T18:11:37;3.53;;;2.20;;
1164;SDS011;571;50.930;6.926;2023-06-24T18:14:17;4.77;;;2.67;;
1164;SDS011;571;50.930;6.926;2023-06-24T18:19:24;2.93;;;2.63;;
1164;SDS011;571;50.930;6.926;2023-06-24T18:21:52;3.27;;;2.60;;
1164;SDS011;571;50.930;6.926;2023-06-24T18:24:19;2.83;;;2.57;;
1164;SDS011;571;50.930;6.926;2023-06-24T18:26:46;3.67;;;2.43;;
1164;SDS011;571;50.930;6.926;2023-06-24T18:29:15;3.03;;;2.73;;
1164;SDS011;571;50.930;6.926;2023-06-24T18:31:42;3.20;;;2.77;;
1164;SDS011;571;50.930;6.926;2023-06-24T18:34:09;6.90;;;2.73;;
1164;SDS011;571;50.930;6.926;2023-06-24T18:36:37;5.10;;;3.00;;
1164;SDS011;571;50.930;6.926;2023-06-24T18:39:04;2.63;;;2.23;;
1164;SDS011;571;50.930;6.926;2023-06-24T18:41:33;2.43;;;2.23;;
1164;SDS011;571;50.930;6.926;2023-06-24T18:44:00;4.03;;;2.80;;
1164;SDS011;571;50.930;6.926;2023-06-24T18:46:29;5.50;;;2.50;;
1164;SDS011;571;50.930;6.926;2023-06-24T18:48:56;4.00;;;3.07;;
1164;SDS011;571;50.930;6.926;2023-06-24T18:51:23;4.90;;;3.80;;
1164;SDS011;571;50.930;6.926;2023-06-24T18:53:51;2.23;;;2.03;;
1164;SDS011;571;50.930;6.926;2023-06-24T18:56:18;3.20;;;2.70;;
1164;SDS011;571;50.930;6.926;2023-06-24T18:58:45;4.57;;;2.70;;
1164;SDS011;571;50.930;6.926;2023-06-24T19:01:12;3.00;;;2.50;;
1164;SDS011;571;50.930;6.926;2023-06-24T19:03:42;3.23;;;2.50;;
1164;SDS011;571;50.930;6.926;2023-06-24T19:06:09;2.90;;;2.40;;
1164;SDS011;571;50.930;6.926;2023-06-24T19:08:38;2.80;;;2.37;;
1164;SDS011;571;50.930;6.926;2023-06-24T19:11:09;3.17;;;2.67;;
1164;SDS011;571;50.930;6.926;2023-06-24T19:13:35;3.20;;;2.60;;
1164;SDS011;571;50.930;6.926;2023-06-24T19:16:06;3.87;;;3.30;;
1164;SDS011;571;50.930;6.926;2023-06-24T19:18:37;3.30;;;3.00;;
1164;SDS011;571;50.930;6.926;2023-06-24T19:21:04;2.63;;;2.23;;
1164;SDS011;571;50.930;6.926;2023-06-24T19:23:33;2.60;;;2.40;;
1164;SDS011;571;50.930;6.926;2023-06-24T19:26:00;6.70;;;3.33;;
1164;SDS011;571;50.930;6.926;2023-06-24T19:28:28;3.40;;;2.37;;
1164;SDS011;571;50.930;6.926;2023-06-24T19:30:56;6.17;;;2.60;;
1164;SDS011;571;50.930;6.926;2023-06-24T19:33:26;2.67;;;2.47;;
1164;SDS011;571;50.930;6.926;2023-06-24T19:35:53;2.93;;;2.40;;
1164;SDS011;571;50.930;6.926;2023-06-24T19:38:20;4.20;;;2.90;;
1164;SDS011;571;50.930;6.926;2023-06-24T19:40:47;3.17;;;2.87;;
1164;SDS011;571;50.930;6.926;2023-06-24T19:43:14;4.00;;;2.60;;
1164;SDS011;571;50.930;6.926;2023-06-24T19:45:44;4.60;;;2.47;;
1164;SDS011;571;50.930;6.926;2023-06-24T19:48:14;3.63;;;2.80;;
1164;SDS011;571;50.930;6.926;2023-06-24T19:50:49;3.30;;;3.00;;
1164;SDS011;571;50.930;6.926;2023-06-24T19:53:17;2.83;;;2.63;;
1164;SDS011;571;50.930;6.926;2023-06-24T19:55:46;3.33;;;2.90;;
1164;SDS011;571;50.930;6.926;2023-06-24T19:58:13;5.33;;;3.00;;
1164;SDS011;571;50.930;6.926;2023-06-24T20:00:45;4.17;;;2.77;;
1164;SDS011;571;50.930;6.926;2023-06-24T20:03:20;3.47;;;3.17;;
1164;SDS011;571;50.930;6.926;2023-06-24T20:05:50;3.57;;;2.90;;
1164;SDS011;571;50.930;6.926;2023-06-24T20:08:17;4.47;;;4.03;;
1164;SDS011;571;50.930;6.926;2023-06-24T20:10:55;3.23;;;2.90;;
1164;SDS011;571;50.930;6.926;2023-06-24T20:13:22;5.33;;;3.10;;
1164;SDS011;571;50.930;6.926;2023-06-24T20:15:50;3.40;;;2.90;;
1164;SDS011;571;50.930;6.926;2023-06-24T20:18:24;3.30;;;2.93;;
1164;SDS011;571;50.930;6.926;2023-06-24T20:21:00;4.03;;;3.60;;
1164;SDS011;571;50.930;6.926;2023-06-24T20:23:29;3.90;;;3.40;;
1164;SDS011;571;50.930;6.926;2023-06-24T20:26:19;3.93;;;3.53;;
1164;SDS011;571;50.930;6.926;2023-06-24T20:28:50;4.07;;;3.37;;
1164;SDS011;571;50.930;6.926;2023-06-24T20:31:37;3.57;;;2.90;;
1164;SDS011;571;50.930;6.926;2023-06-24T20:34:13;3.67;;;3.27;;
1164;SDS011;571;50.930;6.926;2023-06-24T20:36:43;4.50;;;3.50;;
1164;SDS011;571;50.930;6.926;2023-06-24T20:39:10;7.50;;;3.37;;
1164;SDS011;571;50.930;6.926;2023-06-24T20:41:38;3.83;;;3.53;;
1164;SDS011;571;50.930;6.926;2023-06-24T20:44:11;3.80;;;3.50;;
1164;SDS011;571;50.930;6.926;2023-06-24T20:46:43;3.70;;;3.40;;
1164;SDS011;571;50.930;6.926;2023-06-24T20:49:15;3.67;;;3.37;;
1164;SDS011;571;50.930;6.926;2023-06-24T20:52:34;3.97;;;3.57;;
1164;SDS011;571;50.930;6.926;2023-06-24T20:54:51;3.50;;;3.20;;
1164;SDS011;571;50.930;6.926;2023-06-24T20:57:46;9.67;;;4.27;;
1164;SDS011;571;50.930;6.926;2023-06-24T21:00:19;7.90;;;4.17;;
1164;SDS011;571;50.930;6.926;2023-06-24T21:02:48;5.00;;;4.07;;
1164;SDS011;571;50.930;6.926;2023-06-24T21:05:24;4.30;;;3.53;;
1164;SDS011;571;50.930;6.926;2023-06-24T21:07:51;8.33;;;3.97;;
1164;SDS011;571;50.930;6.926;2023-06-24T21:10:19;3.93;;;3.37;;
1164;SDS011;571;50.930;6.926;2023-06-24T21:12:46;4.70;;;4.30;;
1164;SDS011;571;50.930;6.926;2023-06-24T21:15:17;5.43;;;3.73;;
1164;SDS011;571;50.930;6.926;2023-06-24T21:17:52;6.20;;;4.43;;
1164;SDS011;571;50.930;6.926;2023-06-24T21:20:20;5.80;;;4.00;;
1164;SDS011;571;50.930;6.926;2023-06-24T21:22:47;6.47;;;3.97;;
1164;SDS011;571;50.930;6.926;2023-06-24T21:25:20;4.40;;;4.00;;
1164;SDS011;571;50.930;6.926;2023-06-24T21:28:06;4.83;;;4.37;;
1164;SDS011;571;50.930;6.926;2023-06-24T21:30:33;5.07;;;3.90;;
1164;SDS011;571;50.930;6.926;2023-06-24T21:33:17;4.57;;;4.00;;
1164;SDS011;571;50.930;6.926;2023-06-24T21:35:56;4.20;;;3.80;;
1164;SDS011;571;50.930;6.926;2023-06-24T21:38:28;4.67;;;4.20;;
1164;SDS011;571;50.930;6.926;2023-06-24T21:41:03;4.50;;;4.10;;
1164;SDS011;571;50.930;6.926;2023-06-24T21:43:32;5.73;;;5.07;;
1164;SDS011;571;50.930;6.926;2023-06-24T21:46:12;6.27;;;3.80;;
1164;SDS011;571;50.930;6.926;2023-06-24T21:48:44;4.53;;;3.80;;
1164;SDS011;571;50.930;6.926;2023-06-24T21:51:16;5.77;;;4.70;;
1164;SDS011;571;50.930;6.926;2023-06-24T21:53:52;4.37;;;3.97;;
1164;SDS011;571;50.930;6.926;2023-06-24T21:56:31;5.20;;;3.47;;
1164;SDS011;571;50.930;6.926;2023-06-24T21:59:08;6.23;;;4.40;;
1164;SDS011;571;50.930;6.926;2023-06-24T22:12:41;4.67;;;3.77;;
1164;SDS011;571;50.930;6.926;2023-06-24T22:15:08;7.27;;;4.50;;
1164;SDS011;571;50.930;6.926;2023-06-24T22:17:35;4.30;;;3.90;;
1164;SDS011;571;50.930;6.926;2023-06-24T22:20:02;5.70;;;4.13;;
1164;SDS011;571;50.930;6.926;2023-06-24T22:22:29;5.33;;;4.50;;
1164;SDS011;571;50.930;6.926;2023-06-24T22:24:56;6.23;;;4.40;;
1164;SDS011;571;50.930;6.926;2023-06-24T22:27:23;4.37;;;3.80;;
1164;SDS011;571;50.930;6.926;2023-06-24T22:29:51;4.97;;;4.47;;
1164;SDS011;571;50.930;6.926;2023-06-24T22:32:17;4.90;;;4.33;;
1164;SDS011;571;50.930;6.926;2023-06-24T22:34:44;6.40;;;4.60;;
1164;SDS011;571;50.930;6.926;2023-06-24T22:37:11;6.60;;;5.40;;
1164;SDS011;571;50.930;6.926;2023-06-24T22:39:37;7.03;;;4.77;;
1164;SDS011;571;50.930;6.926;2023-06-24T22:42:04;5.43;;;4.57;;
1164;SDS011;571;50.930;6.926;2023-06-24T22:44:31;5.27;;;4.77;;
1164;SDS011;571;50.930;6.926;2023-06-24T22:46:59;5.53;;;4.53;;
1164;SDS011;571;50.930;6.926;2023-06-24T22:49:26;5.43;;;4.43;;
1164;SDS011;571;50.930;6.926;2023-06-24T22:51:53;4.60;;;4.10;;
1164;SDS011;571;50.930;6.926;2023-06-24T22:54:20;4.33;;;4.00;;
1164;SDS011;571;50.930;6.926;2023-06-24T22:56:47;9.03;;;5.17;;
1164;SDS011;571;50.930;6.926;2023-06-24T22:59:14;5.07;;;4.67;;
1164;SDS011;571;50.930;6.926;2023-06-24T23:01:40;4.80;;;4.20;;
1164;SDS011;571;50.930;6.926;2023-06-24T23:04:09;5.40;;;4.90;;
1164;SDS011;571;50.930;6.926;2023-06-24T23:06:36;5.13;;;4.67;;
1164;SDS011;571;50.930;6.926;2023-06-24T23:09:03;11.70;;;5.30;;
1164;SDS011;571;50.930;6.926;2023-06-24T23:11:30;5.93;;;4.20;;
1164;SDS011;571;50.930;6.926;2023-06-24T23:13:57;5.30;;;4.80;;
1164;SDS011;571;50.930;6.926;2023-06-24T23:16:25;5.67;;;5.10;;
1164;SDS011;571;50.930;6.926;2023-06-24T23:18:53;4.43;;;3.90;;
1164;SDS011;571;50.930;6.926;2023-06-24T23:21:21;6.00;;;5.40;;
1164;SDS011;571;50.930;6.926;2023-06-24T23:23:49;6.30;;;4.33;;
1164;SDS011;571;50.930;6.926;2023-06-24T23:26:17;5.53;;;4.50;;
1164;SDS011;571;50.930;6.926;2023-06-24T23:28:44;5.03;;;4.53;;
1164;SDS011;571;50.930;6.926;2023-06-24T23:31:11;4.80;;;4.40;;
1164;SDS011;571;50.930;6.926;2023-06-24T23:33:39;7.33;;;5.10;;
1164;SDS011;571;50.930;6.926;2023-06-24T23:36:06;5.20;;;4.70;;
1164;SDS011;571;50.930;6.926;2023-06-24T23:38:35;6.80;;;5.13;;
1164;SDS011;571;50.930;6.926;2023-06-24T23:41:01;8.43;;;5.70;;
1164;SDS011;571;50.930;6.926;2023-06-24T23:43:31;7.63;;;5.17;;
1164;SDS011;571;50.930;6.926;2023-06-24T23:45:58;5.23;;;4.73;;
1164;SDS011;571;50.930;6.926;2023-06-24T23:48:26;7.13;;;5.90;;
1164;SDS011;571;50.930;6.926;2023-06-24T23:50:53;7.97;;;7.17;;
1164;SDS011;571;50.930;6.926;2023-06-24T23:53:20;6.90;;;6.30;;
1164;SDS011;571;50.930;6.926;2023-06-24T23:55:48;7.23;;;6.50;;
1164;SDS011;571;50.930;6.926;2023-06-24T23:58:15;6.97;;;6.27;;
